Seafalcon — 9HA2814 — position and weather

sailwx.info

Track history (hours):
 
Tides and Currents Weather Stations Pressure Air Temp Water Temp Dewpoint Dewpoint Depression Visibility Wind Speed Wind Dir Waves Ship Positions

Seafalcon

Last reported at 2018-Jul-18 15:49 UTC. Time now 2018-Jul-22 07:03 UTC.
Position N 01°23' E 104°26'.

Length 250 m; draft 8.2 m.

Type: Tanker. MMSI: 256078000.

Date/timePositionNaut miles runAvg speedWind from/ knotsBaromVisibWave heightAir tempDewpointWater temp
2018-Jul-18 15:49N 01°23' E 104°26'514.4
2018-Jul-18 15:28N 01°20' E 104°23'713.4
2018-Jul-18 14:57N 01°17' E 104°17'614.3
2018-Jul-18 14:30N 01°16' E 104°10'1413.8
2018-Jul-18 13:30N 01°13' E 103°57'3 6.3
2018-Jul-18 13:00N 01°15' E 103°54'0 0.3
2018-Jul-18 12:27N 01°16' E 103°54'0 0.0
2018-Jul-18 11:43N 01°16' E 103°54'0 0.0
2018-Jul-18 11:27N 01°16' E 103°54'0 0.0
2018-Jul-18 10:21N 01°16' E 103°54'0 0.0
2018-Jul-18 09:57N 01°16' E 103°54'0 0.0
2018-Jul-18 09:27N 01°16' E 103°54'0 0.0
2018-Jul-18 08:57N 01°16' E 103°54'0 0.0
2018-Jul-18 08:30N 01°16' E 103°54'0 0.0
2018-Jul-18 07:54N 01°16' E 103°54'0 0.0
2018-Jul-18 07:19N 01°16' E 103°54'0 0.0
2018-Jul-18 06:51N 01°16' E 103°54'0 0.0
2018-Jul-18 06:21N 01°16' E 103°54'0 0.0
2018-Jul-18 05:57N 01°16' E 103°54'0 0.0
2018-Jul-18 05:15N 01°16' E 103°54'0 0.2
2018-Jul-18 04:54N 01°16' E 103°54'0 0.1
2018-Jul-18 03:45N 01°16' E 103°54'0 0.0
2018-Jul-18 03:19N 01°16' E 103°54'0 0.0
2018-Jul-18 02:57N 01°16' E 103°54'0 0.1
2018-Jul-18 02:22N 01°16' E 103°54'1 2.0
2018-Jul-18 01:59N 01°16' E 103°55'4 7.3
2018-Jul-18 01:30N 01°16' E 103°58'1 2.5
2018-Jul-18 01:00N 01°16' E 103°60'3 5.8
2018-Jul-18 00:30N 01°16' E 104°02'5 9.9
2018-Jul-17 23:59N 01°17' E 104°07'611.1
2018-Jul-17 23:28N 01°18' E 104°13'611.7
2018-Jul-17 22:58N 01°19' E 104°19'511.2
2018-Jul-17 22:30N 01°22' E 104°23'611.9
2018-Jul-17 21:58N 01°25' E 104°29'714.0
2018-Jul-17 21:29N 01°24' E 104°35'  
Track history (hours):
 
Tides and Currents Weather Stations Pressure Air Temp Water Temp Dewpoint Dewpoint Depression Visibility Wind Speed Wind Dir Waves Ship Positions

Seafalcon

Last reported at 2018-Jul-18 15:49 UTC. Time now 2018-Jul-22 07:03 UTC.
Position N 01°23' E 104°26'.

Length 250 m; draft 8.2 m.

Type: Tanker. MMSI: 256078000.

Date/timePositionNaut miles runAvg speedWind from/ knotsBaromVisibWave heightAir tempDewpointWater temp
2018-Jul-18 15:49N 01°23' E 104°26'514.4
2018-Jul-18 15:28N 01°20' E 104°23'713.4
2018-Jul-18 14:57N 01°17' E 104°17'614.3
2018-Jul-18 14:30N 01°16' E 104°10'1413.8
2018-Jul-18 13:30N 01°13' E 103°57'3 6.3
2018-Jul-18 13:00N 01°15' E 103°54'0 0.3
2018-Jul-18 12:27N 01°16' E 103°54'0 0.0
2018-Jul-18 11:43N 01°16' E 103°54'0 0.0
2018-Jul-18 11:27N 01°16' E 103°54'0 0.0
2018-Jul-18 10:21N 01°16' E 103°54'0 0.0
2018-Jul-18 09:57N 01°16' E 103°54'0 0.0
2018-Jul-18 09:27N 01°16' E 103°54'0 0.0
2018-Jul-18 08:57N 01°16' E 103°54'0 0.0
2018-Jul-18 08:30N 01°16' E 103°54'0 0.0
2018-Jul-18 07:54N 01°16' E 103°54'0 0.0
2018-Jul-18 07:19N 01°16' E 103°54'0 0.0
2018-Jul-18 06:51N 01°16' E 103°54'0 0.0
2018-Jul-18 06:21N 01°16' E 103°54'0 0.0
2018-Jul-18 05:57N 01°16' E 103°54'0 0.0
2018-Jul-18 05:15N 01°16' E 103°54'0 0.2
2018-Jul-18 04:54N 01°16' E 103°54'0 0.1
2018-Jul-18 03:45N 01°16' E 103°54'0 0.0
2018-Jul-18 03:19N 01°16' E 103°54'0 0.0
2018-Jul-18 02:57N 01°16' E 103°54'0 0.1
2018-Jul-18 02:22N 01°16' E 103°54'1 2.0
2018-Jul-18 01:59N 01°16' E 103°55'4 7.3
2018-Jul-18 01:30N 01°16' E 103°58'1 2.5
2018-Jul-18 01:00N 01°16' E 103°60'3 5.8
2018-Jul-18 00:30N 01°16' E 104°02'5 9.9
2018-Jul-17 23:59N 01°17' E 104°07'611.1
2018-Jul-17 23:28N 01°18' E 104°13'611.7
2018-Jul-17 22:58N 01°19' E 104°19'511.2
2018-Jul-17 22:30N 01°22' E 104°23'611.9
2018-Jul-17 21:58N 01°25' E 104°29'714.0
2018-Jul-17 21:29N 01°24' E 104°35'  

Dump ship's entire track history